Time;durP1;ratioP1;P1;durP2;ratioP2;P2;SDS_P1;SDS_P2;PMS_P1;PMS_P2;Temp;Humidity;BMP_temperature;BMP_pressure;BME280_temperature;BME280_humidity;BME280_pressure;Samples;Min_cycle;Max_cycle;Signal;HPM_P1;HPM_P2
2024/03/29 01:43:23;;;;;;;4.77;1.77;;;;;;;4.25;100.00;99462.09;4956706;28;20285;-70
2024/03/29 01:45:53;;;;;;;3.43;2.30;;;;;;;4.23;100.00;99441.47;4960311;28;20234;-70
2024/03/29 01:48:22;;;;;;;4.20;1.60;;;;;;;4.23;100.00;99453.75;4967246;28;20198;-70
2024/03/29 01:50:52;;;;;;;1.83;1.47;;;;;;;4.21;100.00;99454.09;4972589;28;20654;-70
2024/03/29 01:53:20;;;;;;;2.13;1.70;;;;;;;4.21;100.00;99440.25;4968334;28;20205;-69
2024/03/29 01:55:47;;;;;;;1.90;1.60;;;;;;;4.21;100.00;99445.47;4969048;28;20228;-69
2024/03/29 01:58:15;;;;;;;2.47;1.80;;;;;;;4.19;100.00;99448.41;4971978;28;20226;-70
2024/03/29 02:00:49;;;;;;;3.23;1.83;;;;;;;4.20;100.00;99451.78;4967320;28;20213;-70
2024/03/29 02:03:16;;;;;;;2.90;1.60;;;;;;;4.18;100.00;99454.72;4965753;28;20221;-70
2024/03/29 02:05:43;;;;;;;2.30;1.33;;;;;;;4.17;100.00;99455.78;4963435;28;20222;-70
2024/03/29 02:08:10;;;;;;;1.63;1.20;;;;;;;4.16;100.00;99451.66;4954789;28;20570;-70
2024/03/29 02:10:39;;;;;;;3.10;1.50;;;;;;;4.15;100.00;99450.09;4965810;28;20214;-70
2024/03/29 02:13:05;;;;;;;1.90;1.50;;;;;;;4.14;100.00;99461.63;4966061;28;20213;-70
2024/03/29 02:15:32;;;;;;;2.97;1.20;;;;;;;4.13;100.00;99456.69;4969629;28;20229;-70
2024/03/29 02:17:58;;;;;;;1.40;1.13;;;;;;;4.12;100.00;99461.19;4964963;28;20237;-70
2024/03/29 02:20:25;;;;;;;2.53;1.10;;;;;;;4.12;100.00;99470.84;4952013;28;20221;-70
2024/03/29 02:22:54;;;;;;;1.70;1.17;;;;;;;4.11;100.00;99464.88;4962639;28;20548;-70
2024/03/29 02:25:22;;;;;;;3.63;1.33;;;;;;;4.11;100.00;99464.88;4961605;28;20688;-69
2024/03/29 02:27:49;;;;;;;1.67;1.03;;;;;;;4.13;100.00;99462.72;4968435;28;20217;-69
2024/03/29 02:30:15;;;;;;;1.20;1.10;;;;;;;4.17;100.00;99470.69;4971290;28;20293;-69
2024/03/29 02:32:41;;;;;;;1.73;1.00;;;;;;;4.21;100.00;99477.63;4963375;28;20618;-69
2024/03/29 02:35:09;;;;;;;1.53;1.10;;;;;;;4.26;100.00;99474.06;4965334;28;20242;-69
2024/03/29 02:37:36;;;;;;;4.03;1.20;;;;;;;4.28;100.00;99471.91;4969033;28;20283;-69
2024/03/29 02:40:02;;;;;;;2.73;1.13;;;;;;;4.34;100.00;99476.66;4958552;28;20220;-70
2024/03/29 02:42:30;;;;;;;2.53;0.90;;;;;;;4.39;100.00;99468.66;4970192;28;20216;-70
2024/03/29 02:44:56;;;;;;;3.10;0.90;;;;;;;4.43;100.00;99487.09;4959524;28;20205;-70
2024/03/29 02:47:23;;;;;;;2.10;1.00;;;;;;;4.45;100.00;99488.31;4965440;28;20204;-70
2024/03/29 02:53:37;;;;;;;2.73;0.93;;;;;;;4.49;100.00;99496.28;4970235;28;20213;-70
2024/03/29 02:56:03;;;;;;;1.07;0.90;;;;;;;4.49;100.00;99494.47;4967152;28;20226;-70
2024/03/29 02:58:31;;;;;;;3.03;1.10;;;;;;;4.49;100.00;99489.22;4973909;28;20220;-70
2024/03/29 03:00:57;;;;;;;2.60;1.00;;;;;;;4.50;100.00;99492.63;4967760;28;20215;-70
2024/03/29 03:03:27;;;;;;;1.00;0.90;;;;;;;4.48;100.00;99490.31;4957624;28;20202;-70
2024/03/29 03:05:54;;;;;;;3.30;1.00;;;;;;;4.47;100.00;99501.84;4971051;28;20253;-70
2024/03/29 03:11:05;;;;;;;1.47;0.70;;;;;;;4.44;100.00;99504.28;4970134;28;20195;-70
2024/03/29 03:13:33;;;;;;;3.53;1.53;;;;;;;4.42;100.00;99509.06;4968374;28;20206;-70
2024/03/29 03:16:00;;;;;;;1.10;0.80;;;;;;;4.40;100.00;99509.38;4967465;28;20615;-70
2024/03/29 03:18:25;;;;;;;1.83;0.70;;;;;;;4.38;100.00;99506.31;4971833;28;20226;-70
2024/03/29 03:20:52;;;;;;;1.37;0.70;;;;;;;4.36;100.00;99513.69;4970144;28;20202;-70
2024/03/29 03:23:19;;;;;;;1.37;0.60;;;;;;;4.34;100.00;99521.06;4974814;28;20215;-70
2024/03/29 03:25:45;;;;;;;1.57;0.60;;;;;;;4.32;100.00;99512.78;4971426;28;20588;-70
2024/03/29 03:28:11;;;;;;;1.10;0.77;;;;;;;4.30;100.00;99511.56;4973845;28;20277;-70
2024/03/29 03:30:39;;;;;;;3.90;1.00;;;;;;;4.28;100.00;99509.25;4966083;28;20227;-70
2024/03/29 03:33:05;;;;;;;0.70;0.70;;;;;;;4.28;100.00;99505.88;4963464;28;20230;-70
2024/03/29 03:35:31;;;;;;;1.40;1.00;;;;;;;4.26;100.00;99506.16;4967777;28;20229;-70
2024/03/29 03:37:58;;;;;;;0.83;0.70;;;;;;;4.26;100.00;99502.81;4972307;28;20669;-70
2024/03/29 03:40:23;;;;;;;3.73;1.00;;;;;;;4.25;100.00;99514.34;4966770;28;20233;-70
2024/03/29 03:42:49;;;;;;;2.90;0.83;;;;;;;4.24;100.00;99512.78;4970826;28;20606;-70
2024/03/29 03:45:15;;;;;;;3.23;0.80;;;;;;;4.25;100.00;99519.56;4972166;28;20226;-70
2024/03/29 03:47:43;;;;;;;4.80;0.90;;;;;;;4.25;100.00;99503.88;4967181;28;20573;-70
2024/03/29 03:50:09;;;;;;;5.57;0.97;;;;;;;4.25;100.00;99491.56;4962953;28;20700;-70
2024/03/29 03:52:35;;;;;;;1.40;0.83;;;;;;;4.25;100.00;99491.56;4968241;28;20205;-70
2024/03/29 03:55:01;;;;;;;1.00;0.90;;;;;;;4.26;100.00;99492.34;4973105;28;20659;-70
2024/03/29 03:57:27;;;;;;;1.77;0.90;;;;;;;4.26;100.00;99502.81;4971031;28;20215;-69
2024/03/29 03:59:52;;;;;;;2.23;0.73;;;;;;;4.26;100.00;99497.56;4974141;28;20253;-69
2024/03/29 04:02:19;;;;;;;0.60;0.60;;;;;;;4.26;100.00;99503.56;4966881;28;20211;-69
2024/03/29 04:04:48;;;;;;;2.07;0.80;;;;;;;4.26;100.00;99508.78;4968025;28;20216;-69
2024/03/29 04:07:14;;;;;;;0.80;0.60;;;;;;;4.27;100.00;99505.09;4963301;28;20223;-70
2024/03/29 04:09:40;;;;;;;1.27;0.87;;;;;;;4.28;100.00;99496.19;4970339;28;20206;-70
2024/03/29 04:12:06;;;;;;;3.10;0.90;;;;;;;4.28;100.00;99495.41;4957095;28;20206;-70
2024/03/29 04:14:31;;;;;;;1.13;0.80;;;;;;;4.29;100.00;99491.72;4970446;28;20205;-70
2024/03/29 04:16:58;;;;;;;1.03;0.80;;;;;;;4.31;100.00;99486.97;4964343;28;20231;-70
2024/03/29 04:19:23;;;;;;;1.07;0.77;;;;;;;4.34;100.00;99489.72;4973287;28;20215;-70
2024/03/29 04:21:53;;;;;;;3.00;0.87;;;;;;;4.37;100.00;99494.34;4972762;28;20207;-70
2024/03/29 04:24:18;;;;;;;4.43;0.97;;;;;;;4.40;100.00;99490.34;4967230;28;20205;-70
2024/03/29 04:26:47;;;;;;;1.90;0.80;;;;;;;4.41;100.00;99484.03;4970151;28;20222;-70
2024/03/29 04:29:12;;;;;;;1.10;0.90;;;;;;;4.43;100.00;99508.78;4967986;28;20274;-70
2024/03/29 04:31:39;;;;;;;1.13;0.90;;;;;;;4.45;100.00;99498.75;4972382;28;20298;-70
2024/03/29 04:34:04;;;;;;;3.77;1.20;;;;;;;4.46;100.00;99494.31;4965605;28;20606;-70
2024/03/29 04:36:31;;;;;;;2.57;0.90;;;;;;;4.47;100.00;99501.06;4964837;28;20224;-70
2024/03/29 04:38:59;;;;;;;1.50;0.70;;;;;;;4.49;100.00;99497.06;4972219;28;20214;-70
2024/03/29 04:41:25;;;;;;;6.20;1.17;;;;;;;4.51;100.00;99500.13;4966539;28;20205;-70
2024/03/29 04:43:51;;;;;;;3.13;0.90;;;;;;;4.52;100.00;99493.81;4973208;28;20202;-70
2024/03/29 04:46:18;;;;;;;2.30;0.80;;;;;;;4.54;100.00;99491.69;4964771;28;20238;-70
2024/03/29 04:48:45;;;;;;;2.40;1.10;;;;;;;4.55;100.00;99498.44;4970392;28;20202;-70
2024/03/29 04:51:13;;;;;;;2.50;1.37;;;;;;;4.58;100.00;99507.50;4947381;28;20566;-70
2024/03/29 04:53:41;;;;;;;4.67;1.00;;;;;;;4.59;100.00;99512.44;4965013;28;20214;-70
2024/03/29 04:56:09;;;;;;;1.40;0.90;;;;;;;4.63;100.00;99515.19;4971388;28;20226;-70
2024/03/29 04:58:35;;;;;;;1.33;0.90;;;;;;;4.65;100.00;99518.25;4961785;28;20211;-70
2024/03/29 05:01:01;;;;;;;1.73;0.97;;;;;;;4.69;100.00;99506.09;4968472;28;20203;-70
2024/03/29 05:03:28;;;;;;;0.97;0.87;;;;;;;4.72;100.00;99484.56;4945946;28;20206;-70
2024/03/29 05:05:54;;;;;;;1.10;0.90;;;;;;;4.77;100.00;99500.81;4964249;28;20229;-70
2024/03/29 05:08:22;;;;;;;2.50;0.90;;;;;;;4.83;100.00;99509.28;4968891;28;20213;-70
2024/03/29 05:10:49;;;;;;;2.30;0.90;;;;;;;4.88;100.00;99519.56;4968121;28;20300;-70
2024/03/29 05:13:18;;;;;;;1.40;0.93;;;;;;;4.93;100.00;99501.84;4964186;28;20202;-70
2024/03/29 05:15:45;;;;;;;1.00;0.90;;;;;;;4.98;100.00;99519.97;4965879;28;20218;-70
2024/03/29 05:18:11;;;;;;;1.70;0.90;;;;;;;5.04;100.00;99517.97;4964245;28;20231;-70
2024/03/29 05:20:39;;;;;;;2.27;0.93;;;;;;;5.09;100.00;99515.97;4967322;28;20198;-70
2024/03/29 05:23:06;;;;;;;2.30;0.90;;;;;;;5.16;100.00;99518.84;4970432;28;20206;-70
2024/03/29 05:25:32;;;;;;;2.17;1.10;;;;;;;5.23;100.00;99515.75;4966516;28;20577;-70
2024/03/29 05:27:58;;;;;;;5.23;1.20;;;;;;;5.31;100.00;99507.84;4958864;28;20700;-70
2024/03/29 05:30:27;;;;;;;1.83;0.90;;;;;;;5.39;100.00;99504.41;4961876;28;20226;-70
2024/03/29 05:32:53;;;;;;;2.60;0.97;;;;;;;5.45;100.00;99497.88;4967787;28;20277;-70
2024/03/29 05:35:20;;;;;;;0.97;0.70;;;;;;;5.52;100.00;99498.16;4970239;28;20222;-70
2024/03/29 05:37:50;;;;;;;2.30;1.10;;;;;;;5.62;100.00;99497.81;4949660;28;20203;-70
2024/03/29 05:40:16;;;;;;;1.30;0.80;;;;;;;5.70;100.00;99493.59;4971648;28;20641;-70
2024/03/29 05:42:43;;;;;;;3.53;0.83;;;;;;;5.77;100.00;99481.53;4970949;28;20198;-70
2024/03/29 05:45:24;;;;;;;2.10;0.80;;;;;;;5.85;100.00;99485.19;4966096;28;20223;-70
2024/03/29 05:47:52;;;;;;;1.00;0.70;;;;;;;5.93;100.00;99482.50;4966401;28;20202;-70
2024/03/29 05:50:18;;;;;;;3.37;1.03;;;;;;;6.02;100.00;99493.66;4967297;28;20208;-70
2024/03/29 05:52:44;;;;;;;1.27;1.00;;;;;;;6.11;100.00;99504.09;4961685;28;20199;-70
2024/03/29 05:55:10;;;;;;;1.97;1.10;;;;;;;6.22;100.00;99497.34;4949682;28;20222;-70
2024/03/29 05:57:40;;;;;;;2.90;1.13;;;;;;;6.36;100.00;99492.56;4967659;28;20672;-70
2024/03/29 06:00:08;;;;;;;1.73;1.30;;;;;;;6.47;100.00;99488.47;4959670;28;20277;-70
2024/03/29 06:02:35;;;;;;;1.73;1.07;;;;;;;6.62;100.00;99499.09;4964250;28;20782;-70
2024/03/29 06:05:03;;;;;;;2.63;1.47;;;;;;;6.69;100.00;99514.31;4965917;28;20201;-70
2024/03/29 06:07:30;;;;;;;1.37;0.80;;;;;;;6.78;100.00;99507.13;4964151;28;20573;-70
2024/03/29 06:09:57;;;;;;;3.70;1.20;;;;;;;6.90;100.00;99515.78;4964028;28;20218;-70
2024/03/29 06:12:23;;;;;;;1.93;1.10;;;;;;;7.02;100.00;99526.28;4967697;28;20198;-70
2024/03/29 06:17:35;;;;;;;2.30;0.83;;;;;;;7.32;100.00;99540.75;4964687;28;20280;-70
2024/03/29 06:20:04;;;;;;;2.13;1.20;;;;;;;7.43;100.00;99538.44;4943449;28;20233;-70
2024/03/29 06:22:30;;;;;;;1.70;1.23;;;;;;;7.57;100.00;99544.13;4963825;28;20763;-70
2024/03/29 06:24:59;;;;;;;2.43;1.00;;;;;;;7.67;100.00;99546.31;4964618;28;20213;-70
2024/03/29 06:27:25;;;;;;;1.90;1.03;;;;;;;7.76;100.00;99550.31;4963269;28;20628;-70
2024/03/29 06:29:52;;;;;;;1.70;1.13;;;;;;;7.86;100.00;99551.72;4963319;28;20211;-70
2024/03/29 06:32:18;;;;;;;1.03;0.90;;;;;;;7.94;100.00;99549.00;4966951;28;20207;-70
2024/03/29 06:34:45;;;;;;;2.40;1.20;;;;;;;8.00;100.00;99560.03;4967767;28;20199;-70
2024/03/29 06:37:12;;;;;;;1.80;1.13;;;;;;;8.08;100.00;99554.63;4964370;28;20299;-70
2024/03/29 06:39:39;;;;;;;1.57;1.20;;;;;;;8.14;100.00;99549.91;4960527;28;20216;-70
2024/03/29 06:42:07;;;;;;;1.20;1.10;;;;;;;8.26;100.00;99555.94;4967986;28;20194;-70
2024/03/29 06:44:33;;;;;;;2.30;1.20;;;;;;;8.35;100.00;99561.81;4965354;28;20715;-70
2024/03/29 06:46:59;;;;;;;1.60;1.40;;;;;;;8.45;100.00;99563.94;4962671;28;20225;-70
2024/03/29 06:49:26;;;;;;;1.87;1.07;;;;;;;8.56;100.00;99572.13;4966440;28;20215;-70
2024/03/29 06:51:53;;;;;;;1.57;1.07;;;;;;;8.65;100.00;99576.13;4966341;28;20210;-70
2024/03/29 06:54:22;;;;;;;1.50;1.20;;;;;;;8.76;100.00;99571.16;4967325;28;20317;-70
2024/03/29 06:56:48;;;;;;;4.10;1.00;;;;;;;8.86;100.00;99568.78;4966429;28;20222;-70
2024/03/29 06:59:14;;;;;;;2.83;1.00;;;;;;;8.95;100.00;99574.66;4969500;28;20236;-70
2024/03/29 07:01:41;;;;;;;3.03;1.67;;;;;;;9.06;100.00;99574.94;4965393;28;20217;-70
2024/03/29 07:04:07;;;;;;;1.13;1.07;;;;;;;9.15;100.00;99593.97;4966607;28;20770;-70
2024/03/29 07:06:34;;;;;;;1.40;1.20;;;;;;;9.24;100.00;99592.72;4965137;28;20226;-70
2024/03/29 07:09:00;;;;;;;3.57;1.07;;;;;;;9.32;100.00;99586.50;4961962;28;20226;-70
2024/03/29 07:11:28;;;;;;;1.63;1.37;;;;;;;9.40;100.00;99580.28;4965129;28;20237;-70
2024/03/29 07:13:54;;;;;;;2.63;1.40;;;;;;;9.48;100.00;99589.88;4961632;28;20225;-70
2024/03/29 07:16:20;;;;;;;2.07;1.40;;;;;;;9.57;100.00;99585.19;4964190;28;20213;-70
2024/03/29 07:18:46;;;;;;;1.20;1.10;;;;;;;9.62;100.00;99592.84;4966536;28;20226;-70
2024/03/29 07:21:13;;;;;;;2.37;1.00;;;;;;;9.68;100.00;99596.00;4962011;28;20194;-70
2024/03/29 07:23:39;;;;;;;3.23;1.10;;;;;;;9.75;100.00;99602.19;4963919;28;20207;-70
2024/03/29 07:26:06;;;;;;;1.30;0.87;;;;;;;9.82;100.00;99597.06;4963164;28;20228;-70
2024/03/29 07:28:34;;;;;;;2.63;1.17;;;;;;;9.91;100.00;99595.00;4966031;28;20203;-70
2024/03/29 07:31:07;;;;;;;3.30;1.40;;;;;;;9.98;100.00;99603.06;4966876;28;20650;-70
2024/03/29 07:33:33;;;;;;;2.50;1.27;;;;;;;10.04;100.00;99606.25;4966331;28;20199;-70
2024/03/29 07:35:59;;;;;;;2.10;1.13;;;;;;;10.13;100.00;99609.44;4964218;28;20225;-70
2024/03/29 07:38:26;;;;;;;3.63;1.17;;;;;;;10.17;100.00;99612.91;4968092;28;20196;-70
2024/03/29 07:40:52;;;;;;;1.20;1.10;;;;;;;10.21;100.00;99614.53;4969726;28;20219;-70
2024/03/29 07:43:19;;;;;;;1.20;1.10;;;;;;;10.25;100.00;99604.78;4968086;28;20569;-71
2024/03/29 07:45:47;;;;;;;2.43;1.10;;;;;;;10.30;100.00;99598.50;4967715;28;20223;-70
2024/03/29 07:48:16;;;;;;;2.40;1.10;;;;;;;10.32;100.00;99599.69;4969260;28;20268;-70
2024/03/29 07:50:43;;;;;;;1.93;1.20;;;;;;;10.36;100.00;99629.53;4967839;28;20694;-70
2024/03/29 07:53:09;;;;;;;2.07;1.13;;;;;;;10.38;100.00;99639.72;4954153;28;20215;-70
2024/03/29 07:55:36;;;;;;;1.10;1.00;;;;;;;10.44;100.00;99619.88;4967591;28;20220;-70
2024/03/29 07:58:05;;;;;;;1.83;1.37;;;;;;;10.49;100.00;99628.28;4966701;28;20581;-70
2024/03/29 08:00:32;;;;;;;1.87;1.03;;;;;;;10.55;100.00;99624.25;4969738;28;20558;-70
2024/03/29 08:03:00;;;;;;;2.50;1.30;;;;;;;10.62;100.00;99634.94;4973302;28;20216;-70
2024/03/29 08:05:27;;;;;;;1.47;1.30;;;;;;;10.71;100.00;99653.25;4971308;28;20214;-70
2024/03/29 08:07:53;;;;;;;1.03;0.90;;;;;;;10.80;100.00;99649.25;4966782;28;20287;-70
2024/03/29 08:10:19;;;;;;;1.47;1.00;;;;;;;10.90;99.94;99653.22;4966344;28;20220;-70
2024/03/29 08:12:46;;;;;;;2.37;0.93;;;;;;;10.99;100.00;99651.13;4970298;28;20209;-70
2024/03/29 08:15:12;;;;;;;1.90;0.90;;;;;;;11.07;99.95;99656.19;4965469;28;20227;-70
2024/03/29 08:17:38;;;;;;;2.53;1.10;;;;;;;11.15;93.21;99659.72;4965507;28;20233;-70
2024/03/29 08:20:07;;;;;;;1.33;1.00;;;;;;;11.21;95.96;99661.72;4968510;28;20647;-70
2024/03/29 08:22:33;;;;;;;3.23;1.10;;;;;;;11.27;91.07;99668.25;4965914;28;20194;-70
2024/03/29 08:25:00;;;;;;;1.73;0.97;;;;;;;11.33;89.74;99671.38;4952558;28;20217;-70
2024/03/29 08:27:27;;;;;;;2.70;1.17;;;;;;;11.40;91.54;99672.25;4968838;28;20201;-70
2024/03/29 08:29:53;;;;;;;1.53;1.00;;;;;;;11.45;89.79;99666.66;4965723;28;20203;-70
2024/03/29 08:32:20;;;;;;;0.87;0.87;;;;;;;11.51;81.71;99657.34;4967397;28;20194;-70
2024/03/29 08:34:47;;;;;;;1.30;0.93;;;;;;;11.61;98.08;99666.56;4966502;28;20278;-70
2024/03/29 08:37:14;;;;;;;2.70;0.90;;;;;;;11.66;81.80;99675.00;4965251;28;20229;-70
2024/03/29 08:39:41;;;;;;;0.90;0.80;;;;;;;11.73;81.76;99666.38;4967024;28;20307;-70
2024/03/29 08:42:11;;;;;;;2.20;1.20;;;;;;;11.81;75.76;99670.66;4965338;28;20207;-70
2024/03/29 08:44:37;;;;;;;2.70;0.80;;;;;;;11.88;76.10;99666.25;4963138;28;20221;-71
2024/03/29 08:47:04;;;;;;;1.27;0.80;;;;;;;11.97;73.32;99668.66;4965810;28;20605;-71
2024/03/29 08:49:31;;;;;;;1.47;0.90;;;;;;;12.07;68.24;99660.09;4963918;28;20213;-70
2024/03/29 08:51:59;;;;;;;1.93;0.80;;;;;;;12.15;73.13;99661.72;4971990;28;20739;-70
2024/03/29 08:54:27;;;;;;;1.03;0.80;;;;;;;12.25;74.51;99663.75;5001285;28;20205;-70
2024/03/29 08:56:54;;;;;;;1.80;0.83;;;;;;;12.36;77.45;99668.06;5002377;28;20231;-70
2024/03/29 08:59:20;;;;;;;1.20;0.70;;;;;;;12.46;76.20;99662.13;5006620;28;20203;-70
2024/03/29 09:01:48;;;;;;;1.33;0.87;;;;;;;12.56;69.34;99656.22;5002521;28;20669;-70
2024/03/29 09:04:15;;;;;;;1.57;0.90;;;;;;;12.63;67.49;99651.00;5001230;28;20193;-70
2024/03/29 09:06:42;;;;;;;1.60;1.00;;;;;;;12.72;73.38;99661.31;5004061;28;20227;-70
2024/03/29 09:09:08;;;;;;;1.10;0.80;;;;;;;12.80;71.79;99657.63;5005507;28;20223;-70
2024/03/29 09:11:36;;;;;;;1.17;0.60;;;;;;;12.89;67.43;99652.81;5006771;28;20197;-70
2024/03/29 09:14:04;;;;;;;3.17;0.90;;;;;;;12.99;72.63;99660.16;5005711;28;20685;-70
2024/03/29 09:16:30;;;;;;;2.13;0.80;;;;;;;13.08;69.32;99661.38;5002818;28;20250;-70
2024/03/29 09:18:57;;;;;;;4.63;0.93;;;;;;;13.17;65.56;99651.25;5007690;28;20567;-70
2024/03/29 09:21:23;;;;;;;1.57;0.73;;;;;;;13.24;63.40;99664.56;5006303;28;20227;-71
2024/03/29 09:23:52;;;;;;;3.03;0.90;;;;;;;13.31;60.79;99645.31;5006845;28;20202;-70
2024/03/29 09:26:19;;;;;;;1.53;0.80;;;;;;;13.40;63.18;99643.88;5006851;28;20234;-70
2024/03/29 09:28:46;;;;;;;1.20;0.80;;;;;;;13.45;61.75;99646.19;5002250;28;20208;-70
2024/03/29 09:31:13;;;;;;;2.50;0.90;;;;;;;13.51;63.36;99650.00;5003036;28;20208;-70
2024/03/29 09:33:39;;;;;;;0.90;0.80;;;;;;;13.60;69.01;99653.13;4988419;28;20204;-70
2024/03/29 09:36:06;;;;;;;2.47;0.90;;;;;;;13.72;64.48;99649.44;5005646;28;20219;-70
2024/03/29 09:38:32;;;;;;;1.80;0.70;;;;;;;13.82;61.44;99640.78;4987860;28;20270;-71
2024/03/29 09:41:11;;;;;;;1.30;0.80;;;;;;;13.93;63.13;99631.00;5002298;28;20655;-70
2024/03/29 09:43:39;;;;;;;1.53;0.70;;;;;;;14.03;61.83;99632.97;5001791;28;20659;-71
2024/03/29 09:46:07;;;;;;;2.40;0.80;;;;;;;14.13;56.99;99624.28;4984672;28;20781;-71
2024/03/29 09:48:36;;;;;;;2.17;1.00;;;;;;;14.20;60.15;99622.47;5003026;28;20197;-71
2024/03/29 09:51:04;;;;;;;0.93;0.60;;;;;;;14.31;56.78;99633.13;5004548;28;20205;-70
2024/03/29 09:53:32;;;;;;;1.23;0.70;;;;;;;14.37;61.80;99648.34;5004898;28;20203;-71
2024/03/29 09:56:00;;;;;;;0.80;0.50;;;;;;;14.45;55.03;99641.16;5003627;28;20233;-71
2024/03/29 09:58:26;;;;;;;2.43;0.80;;;;;;;14.54;58.71;99630.97;5001059;28;20205;-71
2024/03/29 10:00:52;;;;;;;1.63;0.90;;;;;;;14.64;58.56;99632.91;5003732;28;20204;-71
2024/03/29 10:03:21;;;;;;;1.53;0.87;;;;;;;14.76;53.96;99635.22;5003326;28;20192;-71
2024/03/29 10:05:48;;;;;;;2.57;1.03;;;;;;;14.86;54.40;99634.47;5002499;28;20793;-71
2024/03/29 10:08:14;;;;;;;2.27;0.70;;;;;;;14.91;54.42;99626.13;4985070;28;20318;-71
2024/03/29 10:10:41;;;;;;;0.60;0.60;;;;;;;14.98;57.34;99629.56;5005537;28;20208;-71
2024/03/29 10:13:08;;;;;;;0.70;0.60;;;;;;;15.06;57.34;99623.13;5005835;28;20201;-70
2024/03/29 10:15:37;;;;;;;5.57;0.93;;;;;;;15.10;53.71;99620.47;5004303;28;20247;-71
2024/03/29 10:18:04;;;;;;;2.60;0.87;;;;;;;15.19;55.05;99618.97;5003977;28;20201;-71
2024/03/29 10:20:32;;;;;;;2.17;0.87;;;;;;;15.32;56.63;99622.75;4986893;28;20349;-71
2024/03/29 10:23:02;;;;;;;1.50;0.70;;;;;;;15.43;53.84;99610.25;5003300;28;20682;-71
2024/03/29 10:25:32;;;;;;;1.10;0.67;;;;;;;15.50;50.04;99615.59;5004238;28;20292;-71
2024/03/29 10:28:01;;;;;;;0.70;0.60;;;;;;;15.57;52.68;99612.91;5003519;28;20212;-71
2024/03/29 10:30:28;;;;;;;2.23;0.90;;;;;;;15.69;56.18;99598.47;5001307;28;20762;-71
2024/03/29 10:32:56;;;;;;;0.80;0.60;;;;;;;15.75;55.04;99580.97;5004904;28;20211;-71
2024/03/29 10:35:22;;;;;;;0.50;0.50;;;;;;;15.89;54.08;99581.69;5000730;28;20225;-71
2024/03/29 10:37:50;;;;;;;0.73;0.50;;;;;;;16.00;51.15;99573.69;5001884;28;20560;-71
2024/03/29 10:40:18;;;;;;;2.30;0.60;;;;;;;16.11;49.70;99567.19;5001159;28;20216;-71
2024/03/29 10:42:48;;;;;;;1.40;0.60;;;;;;;16.24;52.14;99551.53;4999752;28;20207;-71
2024/03/29 10:45:16;;;;;;;1.20;0.60;;;;;;;16.35;52.15;99557.56;4998649;28;20228;-71
2024/03/29 10:47:46;;;;;;;2.10;0.50;;;;;;;16.44;54.67;99552.59;5002327;28;20192;-71
2024/03/29 10:50:18;;;;;;;1.50;0.40;;;;;;;16.53;49.39;99547.59;5000792;28;20581;-71
2024/03/29 10:52:44;;;;;;;1.53;0.77;;;;;;;16.61;49.57;99541.09;5000426;28;20207;-71
2024/03/29 10:55:12;;;;;;;1.07;0.60;;;;;;;16.72;55.94;99539.84;4997761;28;20231;-71
2024/03/29 10:57:41;;;;;;;1.00;0.50;;;;;;;16.79;51.33;99536.41;5001158;28;20209;-71
2024/03/29 11:00:14;;;;;;;1.60;0.73;;;;;;;16.88;51.97;99552.72;4998811;28;20236;-71
2024/03/29 11:02:49;;;;;;;1.30;0.60;;;;;;;16.96;50.83;99546.16;5001903;28;20211;-71
2024/03/29 11:05:17;;;;;;;1.03;0.57;;;;;;;17.04;52.45;99552.97;4998666;28;21585;-71
2024/03/29 11:07:45;;;;;;;1.30;0.50;;;;;;;17.09;46.99;99552.56;4981439;28;20224;-71
2024/03/29 11:10:16;;;;;;;1.37;0.60;;;;;;;17.19;47.68;99549.78;4999441;28;20295;-71
2024/03/29 11:12:51;;;;;;;1.90;0.40;;;;;;;17.26;48.45;99535.66;5000030;28;20690;-71
2024/03/29 11:15:23;;;;;;;1.63;0.43;;;;;;;17.31;46.22;99553.91;5005786;28;20216;-71
2024/03/29 11:17:55;;;;;;;1.17;0.73;;;;;;;17.31;40.95;99538.66;5004646;28;20196;-71
2024/03/29 11:20:27;;;;;;;0.70;0.43;;;;;;;17.35;41.67;99530.63;5006611;28;20197;-71
2024/03/29 11:22:54;;;;;;;1.93;0.80;;;;;;;17.40;47.87;99516.88;5005576;28;20208;-71
2024/03/29 11:25:23;;;;;;;2.23;0.60;;;;;;;17.42;45.97;99511.88;5006539;28;20220;-71
2024/03/29 11:27:49;;;;;;;8.00;1.10;;;;;;;17.42;42.49;99499.31;5006967;28;20211;-71
2024/03/29 11:30:18;;;;;;;0.80;0.60;;;;;;;17.49;48.05;99506.50;4986239;28;20292;-71
2024/03/29 11:32:44;;;;;;;1.50;0.60;;;;;;;17.50;39.82;99505.34;5006329;28;20205;-71
2024/03/29 11:35:15;;;;;;;2.93;0.70;;;;;;;17.55;40.59;99497.63;5006472;28;20225;-71
2024/03/29 11:37:41;;;;;;;1.33;0.67;;;;;;;17.56;41.14;99498.41;5006187;28;20205;-71
2024/03/29 11:40:11;;;;;;;1.20;0.70;;;;;;;17.56;45.35;99496.50;5006950;28;20254;-71
2024/03/29 11:42:45;;;;;;;1.53;0.60;;;;;;;17.51;35.35;99502.28;5007044;28;20196;-71
2024/03/29 11:45:11;;;;;;;0.50;0.50;;;;;;;17.52;38.52;99501.13;5003316;28;20213;-71
2024/03/29 11:47:40;;;;;;;1.43;0.83;;;;;;;17.55;40.66;99508.31;5004674;28;20723;-71
2024/03/29 11:50:08;;;;;;;2.30;0.70;;;;;;;17.57;41.65;99511.38;5001965;28;20671;-71
2024/03/29 11:52:34;;;;;;;1.37;0.60;;;;;;;17.57;41.88;99518.59;5003431;28;20209;-71
2024/03/29 11:55:01;;;;;;;1.10;0.67;;;;;;;17.59;39.36;99519.72;5002047;28;20196;-71
2024/03/29 11:57:28;;;;;;;2.27;0.80;;;;;;;17.63;45.22;99531.13;5010387;28;20224;-71
2024/03/29 11:59:55;;;;;;;1.80;0.93;;;;;;;17.64;39.32;99527.31;5003090;28;20571;-71
2024/03/29 12:02:22;;;;;;;2.20;0.90;;;;;;;17.65;39.59;99534.16;5007238;28;21006;-71
2024/03/29 12:04:49;;;;;;;1.73;0.67;;;;;;;17.65;39.56;99536.06;5004031;28;20208;-71
2024/03/29 12:07:15;;;;;;;1.87;0.90;;;;;;;17.64;44.05;99523.88;4988656;28;20208;-71
2024/03/29 12:09:41;;;;;;;1.53;0.80;;;;;;;17.58;44.50;99536.13;5005341;28;20208;-71
2024/03/29 12:12:09;;;;;;;1.27;0.97;;;;;;;17.57;44.74;99532.72;5002420;28;20548;-71
2024/03/29 12:14:37;;;;;;;1.30;0.90;;;;;;;17.59;41.82;99522.38;5004293;28;20616;-71
2024/03/29 12:17:13;;;;;;;1.17;0.80;;;;;;;17.59;40.55;99522.38;5005658;28;20295;-71
2024/03/29 12:19:42;;;;;;;2.13;1.13;;;;;;;17.60;40.50;99518.56;5005269;28;20219;-71
2024/03/29 12:22:08;;;;;;;2.30;0.80;;;;;;;17.60;37.69;99534.56;5004195;28;20266;-71
2024/03/29 12:24:35;;;;;;;1.20;1.10;;;;;;;17.67;43.36;99523.84;5002931;28;20205;-71
2024/03/29 12:27:01;;;;;;;1.10;0.80;;;;;;;17.67;38.16;99525.75;5000831;28;20235;-71
2024/03/29 12:29:30;;;;;;;1.43;1.00;;;;;;;17.70;39.96;99535.66;5001559;28;20221;-71
2024/03/29 12:31:59;;;;;;;1.20;1.00;;;;;;;17.71;39.10;99535.25;5005826;28;20193;-71
2024/03/29 12:34:27;;;;;;;1.17;1.00;;;;;;;17.69;37.47;99534.88;5004277;28;20570;-71
2024/03/29 12:36:53;;;;;;;1.73;1.00;;;;;;;17.73;39.49;99532.94;5002496;28;20610;-71
2024/03/29 12:39:21;;;;;;;1.70;1.07;;;;;;;17.77;41.61;99524.88;5005079;28;20204;-71
2024/03/29 12:41:48;;;;;;;1.00;0.80;;;;;;;17.81;38.41;99526.34;5006276;28;20248;-71
2024/03/29 12:44:14;;;;;;;1.33;0.80;;;;;;;17.83;38.84;99521.38;5004114;28;20213;-71
2024/03/29 12:46:41;;;;;;;1.57;1.00;;;;;;;17.86;38.13;99523.22;5003510;28;20217;-71
2024/03/29 12:49:11;;;;;;;1.20;0.80;;;;;;;17.90;39.79;99525.88;5003148;28;20263;-71
2024/03/29 12:51:40;;;;;;;1.20;1.00;;;;;;;17.90;40.47;99515.22;5001738;28;20200;-71
2024/03/29 12:54:07;;;;;;;1.20;0.90;;;;;;;17.92;37.95;99523.56;4998940;28;20205;-71
2024/03/29 12:56:36;;;;;;;1.00;0.70;;;;;;;17.93;39.79;99525.84;4989706;28;20727;-71
2024/03/29 12:59:02;;;;;;;1.00;0.80;;;;;;;17.97;39.39;99528.47;5004463;28;20231;-71
2024/03/29 13:01:29;;;;;;;1.10;0.80;;;;;;;17.99;39.54;99524.25;4985543;28;20212;-71
2024/03/29 13:03:55;;;;;;;1.67;1.00;;;;;;;18.02;42.34;99523.47;5003969;28;20196;-71
2024/03/29 13:06:21;;;;;;;2.70;0.70;;;;;;;17.98;40.23;99517.41;5002552;28;20788;-71
2024/03/29 13:08:49;;;;;;;1.03;0.60;;;;;;;17.97;38.84;99518.56;5002830;28;20267;-71
2024/03/29 13:11:16;;;;;;;2.17;0.80;;;;;;;17.97;38.35;99515.88;5002156;28;20209;-71
2024/03/29 13:13:42;;;;;;;2.30;0.90;;;;;;;17.96;38.12;99514.34;5004166;28;20664;-71
2024/03/29 13:16:09;;;;;;;1.13;0.83;;;;;;;17.99;43.46;99497.53;5001246;28;20225;-71
2024/03/29 13:18:36;;;;;;;1.20;1.10;;;;;;;17.99;44.32;99496.75;5003044;28;20204;-71
2024/03/29 13:21:02;;;;;;;1.30;0.83;;;;;;;17.95;39.25;99502.16;5004537;28;20217;-71
2024/03/29 13:23:28;;;;;;;3.03;0.83;;;;;;;17.98;41.24;99500.59;4987305;28;20205;-71
2024/03/29 13:25:57;;;;;;;2.60;0.80;;;;;;;18.01;39.39;99497.13;4995761;28;20225;-71